createdAt,value
2018-01-17T00:01:08.073Z,2.80
2018-01-17T00:03:35.615Z,2.70
2018-01-17T00:06:03.167Z,2.80
2018-01-17T00:08:31.404Z,2.80
2018-01-17T00:10:58.904Z,2.80
2018-01-17T00:13:26.339Z,2.80
2018-01-17T00:15:53.777Z,2.80
2018-01-17T00:18:21.260Z,2.80
2018-01-17T00:20:51.589Z,2.70
2018-01-17T00:23:19.007Z,2.70
2018-01-17T00:25:47.227Z,2.80
2018-01-17T00:28:15.216Z,2.80
2018-01-17T00:30:46.804Z,2.90
2018-01-17T00:33:14.342Z,3.00
2018-01-17T00:35:41.792Z,3.10
2018-01-17T00:38:09.257Z,3.00
2018-01-17T00:40:36.721Z,3.00
2018-01-17T00:43:04.992Z,3.00
2018-01-17T00:45:32.449Z,3.00
2018-01-17T00:47:59.905Z,2.90
2018-01-17T00:50:27.900Z,2.90
2018-01-17T00:52:57.507Z,3.00
2018-01-17T00:55:24.952Z,3.00
2018-01-17T00:57:52.399Z,3.00
2018-01-17T01:00:23.633Z,3.10
2018-01-17T01:02:51.076Z,3.10
2018-01-17T01:05:19.318Z,3.00
2018-01-17T01:07:46.841Z,3.10
2018-01-17T01:10:14.333Z,3.10
2018-01-17T01:12:41.837Z,3.10
2018-01-17T01:15:12.313Z,3.10
2018-01-17T01:17:39.747Z,3.20
2018-01-17T01:20:08.891Z,3.30
2018-01-17T01:22:36.600Z,3.30
2018-01-17T01:25:04.060Z,3.40
2018-01-17T01:27:31.542Z,3.40
2018-01-17T01:29:59.820Z,3.50
2018-01-17T01:32:27.957Z,3.50
2018-01-17T01:34:55.482Z,3.50
2018-01-17T01:37:22.963Z,3.60
2018-01-17T01:39:50.524Z,3.80
2018-01-17T01:42:18.011Z,3.90
2018-01-17T01:44:45.486Z,3.90
2018-01-17T01:47:12.998Z,3.70
2018-01-17T01:49:40.462Z,3.60
2018-01-17T01:52:07.954Z,3.40
2018-01-17T01:54:36.367Z,3.20
2018-01-17T01:57:03.891Z,3.20
2018-01-17T01:59:32.166Z,3.00
2018-01-17T02:02:03.928Z,3.00
2018-01-17T02:04:31.698Z,3.00
2018-01-17T02:06:59.283Z,2.90
2018-01-17T02:09:26.779Z,2.80
2018-01-17T02:11:54.307Z,2.80
2018-01-17T02:14:21.790Z,2.70
2018-01-17T02:16:49.267Z,2.80
2018-01-17T02:19:16.728Z,2.80
2018-01-17T02:21:45.705Z,2.80
2018-01-17T02:24:13.141Z,2.70
2018-01-17T02:26:40.597Z,2.80
2018-01-17T02:29:08.061Z,2.60
2018-01-17T02:31:35.508Z,2.50
2018-01-17T02:34:03.898Z,2.50
2018-01-17T02:36:32.874Z,2.50
2018-01-17T02:39:00.668Z,2.60
2018-01-17T02:41:29.036Z,2.60
2018-01-17T02:43:56.508Z,2.50
2018-01-17T02:46:27.325Z,2.20
2018-01-17T02:48:54.788Z,2.10
2018-01-17T02:51:24.694Z,2.10
2018-01-17T02:53:52.140Z,2.10
2018-01-17T02:56:19.774Z,2.10
2018-01-17T02:58:47.240Z,2.00
2018-01-17T03:01:15.001Z,2.10
2018-01-17T03:03:42.940Z,2.00
2018-01-17T03:06:10.427Z,2.00
2018-01-17T03:08:37.881Z,2.10
2018-01-17T03:11:05.592Z,2.10
2018-01-17T03:13:33.347Z,2.10
2018-01-17T03:16:01.012Z,2.20
2018-01-17T03:18:28.493Z,2.20
2018-01-17T03:20:55.960Z,2.20
2018-01-17T03:23:23.409Z,2.10
2018-01-17T03:25:51.884Z,2.10
2018-01-17T03:28:19.335Z,2.00
2018-01-17T03:30:46.794Z,2.00
2018-01-17T03:33:17.029Z,1.90
2018-01-17T03:35:44.469Z,1.90
2018-01-17T03:38:12.048Z,1.80
2018-01-17T03:40:41.205Z,2.00
2018-01-17T03:43:08.656Z,2.00
2018-01-17T03:45:36.124Z,2.10
2018-01-17T03:48:03.575Z,2.30
2018-01-17T03:50:31.036Z,2.40
2018-01-17T03:52:58.509Z,2.50
2018-01-17T03:55:25.964Z,2.50
2018-01-17T03:57:53.431Z,2.50
2018-01-17T04:00:20.884Z,2.60
2018-01-17T04:02:52.320Z,2.50
2018-01-17T04:05:19.786Z,2.50
2018-01-17T04:07:47.248Z,2.40
2018-01-17T04:10:14.706Z,2.40
2018-01-17T04:12:42.465Z,2.30
2018-01-17T04:15:09.937Z,2.40
2018-01-17T04:17:37.397Z,2.30
2018-01-17T04:20:04.937Z,2.30
2018-01-17T04:22:34.048Z,2.30
2018-01-17T04:25:01.497Z,2.30
2018-01-17T04:27:28.942Z,2.40
2018-01-17T04:29:56.407Z,2.50
2018-01-17T04:32:23.984Z,2.40
2018-01-17T04:34:51.676Z,2.50
2018-01-17T04:37:19.287Z,2.40
2018-01-17T04:39:47.483Z,2.40
2018-01-17T04:42:14.953Z,2.40
2018-01-17T04:44:42.499Z,2.30
2018-01-17T04:47:09.933Z,2.40
2018-01-17T04:49:37.392Z,2.40
2018-01-17T04:52:04.860Z,2.30
2018-01-17T04:54:32.436Z,2.40
2018-01-17T04:57:01.580Z,2.50
2018-01-17T04:59:29.060Z,2.40
2018-01-17T05:01:56.552Z,2.40
2018-01-17T05:04:28.580Z,2.40
2018-01-17T05:06:56.053Z,2.40
2018-01-17T05:09:23.825Z,2.30
2018-01-17T05:11:51.278Z,2.40
2018-01-17T05:14:19.022Z,2.30
2018-01-17T05:16:46.480Z,2.30
2018-01-17T05:19:18.545Z,2.30
2018-01-17T05:21:46.009Z,2.20
2018-01-17T05:24:13.464Z,2.20
2018-01-17T05:26:40.930Z,2.30
2018-01-17T05:29:08.556Z,2.30
2018-01-17T05:31:36.682Z,2.30
2018-01-17T05:34:08.879Z,2.30
2018-01-17T05:36:36.390Z,2.30
2018-01-17T05:39:05.541Z,2.30
2018-01-17T05:41:32.985Z,2.30
2018-01-17T05:44:00.693Z,2.30
2018-01-17T05:46:28.135Z,2.30
2018-01-17T05:48:55.616Z,2.30
2018-01-17T05:51:23.074Z,2.40
2018-01-17T05:53:50.549Z,2.40
2018-01-17T05:56:18.022Z,2.40
2018-01-17T05:58:45.488Z,2.40
2018-01-17T06:01:14.493Z,2.40
2018-01-17T06:03:41.966Z,2.40
2018-01-17T06:06:09.600Z,2.40
2018-01-17T06:08:38.723Z,2.30
2018-01-17T06:11:06.192Z,2.30
2018-01-17T06:13:33.637Z,2.30
2018-01-17T06:16:01.170Z,2.30
2018-01-17T06:18:28.619Z,2.30
2018-01-17T06:20:56.088Z,2.30
2018-01-17T06:23:23.572Z,2.30
2018-01-17T06:25:51.156Z,2.30
2018-01-17T06:28:18.605Z,2.30
2018-01-17T06:30:46.815Z,2.30
2018-01-17T06:33:14.298Z,2.30
2018-01-17T06:35:41.728Z,2.30
2018-01-17T06:38:09.312Z,2.30
2018-01-17T06:40:36.792Z,2.20
2018-01-17T06:43:04.260Z,2.20
2018-01-17T06:45:31.760Z,2.20
2018-01-17T06:48:00.901Z,2.10
2018-01-17T06:50:32.569Z,2.00
2018-01-17T06:53:00.965Z,2.10
2018-01-17T06:55:28.441Z,2.00
2018-01-17T06:57:55.904Z,1.90
2018-01-17T07:00:23.568Z,2.00
2018-01-17T07:02:51.041Z,2.00
2018-01-17T07:05:18.489Z,2.00
2018-01-17T07:07:46.030Z,2.00
2018-01-17T07:10:13.542Z,2.00
2018-01-17T07:12:41.008Z,2.00
2018-01-17T07:15:08.470Z,2.00
2018-01-17T07:17:35.929Z,2.00
2018-01-17T07:20:03.922Z,2.00
2018-01-17T07:22:39.129Z,1.90
2018-01-17T07:25:06.599Z,1.90
2018-01-17T07:27:35.255Z,2.00
2018-01-17T07:30:02.689Z,2.00
2018-01-17T07:32:30.415Z,2.00
2018-01-17T07:34:57.885Z,2.10
2018-01-17T07:37:33.041Z,2.10
2018-01-17T07:40:00.481Z,2.10
2018-01-17T07:42:27.960Z,2.20
2018-01-17T07:44:55.584Z,2.30
2018-01-17T07:47:24.716Z,2.30
2018-01-17T07:49:52.145Z,2.30
2018-01-17T07:52:22.889Z,2.30
2018-01-17T07:54:50.365Z,2.40
2018-01-17T07:57:17.840Z,2.30
2018-01-17T07:59:45.266Z,2.20
2018-01-17T08:02:12.798Z,2.20
2018-01-17T08:04:40.290Z,2.10
2018-01-17T08:07:08.541Z,1.90
2018-01-17T08:09:36.004Z,1.60
2018-01-17T08:12:03.481Z,1.30
2018-01-17T08:14:30.961Z,1.20
2018-01-17T08:16:58.441Z,1.00
2018-01-17T08:19:25.919Z,0.90
2018-01-17T08:21:53.351Z,0.80
2018-01-17T08:24:25.125Z,0.80
2018-01-17T08:26:53.468Z,0.80
2018-01-17T08:29:20.944Z,0.70
2018-01-17T08:31:48.405Z,0.70
2018-01-17T08:34:15.880Z,0.70
2018-01-17T08:36:43.360Z,0.70
2018-01-17T08:39:11.615Z,0.80
2018-01-17T08:41:39.076Z,0.80
2018-01-17T08:44:06.542Z,1.00
2018-01-17T08:46:33.998Z,1.00
2018-01-17T08:49:01.461Z,1.00
2018-01-17T08:51:28.979Z,1.00
2018-01-17T08:53:56.410Z,0.90
2018-01-17T08:56:23.882Z,0.60
2018-01-17T08:58:51.348Z,0.40
2018-01-17T09:01:19.121Z,0.30
2018-01-17T09:03:46.585Z,0.30
2018-01-17T09:06:15.605Z,0.30
2018-01-17T09:08:43.048Z,0.30
2018-01-17T09:11:10.675Z,0.40
2018-01-17T09:13:38.236Z,0.40
2018-01-17T09:16:05.697Z,0.50
2018-01-17T09:18:33.804Z,0.50
2018-01-17T09:21:01.260Z,0.60
2018-01-17T09:23:31.793Z,0.70
2018-01-17T09:25:59.234Z,0.80
2018-01-17T09:28:26.839Z,0.90
2018-01-17T09:30:54.349Z,1.00
2018-01-17T09:33:22.592Z,1.10
2018-01-17T09:35:50.030Z,1.00
2018-01-17T09:38:18.005Z,1.10
2018-01-17T09:40:45.800Z,1.20
2018-01-17T09:43:13.286Z,1.20
2018-01-17T09:45:40.730Z,1.30
2018-01-17T09:48:08.210Z,1.40
2018-01-17T09:50:35.670Z,1.50
2018-01-17T09:53:03.149Z,1.50
2018-01-17T09:55:30.622Z,1.50
2018-01-17T09:57:58.235Z,1.50
2018-01-17T10:00:26.455Z,1.50
2018-01-17T10:02:53.919Z,1.50
2018-01-17T10:05:21.382Z,1.50
2018-01-17T10:07:48.880Z,1.60
2018-01-17T10:10:21.832Z,1.60
2018-01-17T10:12:50.078Z,1.60
2018-01-17T10:15:17.540Z,1.60
2018-01-17T10:17:46.740Z,1.60
2018-01-17T10:20:14.215Z,1.60
2018-01-17T10:22:41.669Z,1.60
2018-01-17T10:25:09.128Z,1.70
2018-01-17T10:27:36.583Z,1.80
2018-01-17T10:30:04.070Z,1.90
2018-01-17T10:32:32.471Z,2.10
2018-01-17T10:34:59.920Z,2.00
2018-01-17T10:37:28.388Z,2.20
2018-01-17T10:39:55.857Z,2.20
2018-01-17T10:42:23.413Z,2.20
2018-01-17T10:44:51.650Z,2.30
2018-01-17T10:47:19.562Z,2.20
2018-01-17T10:49:47.780Z,2.20
2018-01-17T10:52:15.433Z,2.20
2018-01-17T10:54:47.428Z,2.30
2018-01-17T10:57:14.876Z,2.30
2018-01-17T10:59:42.357Z,2.40
2018-01-17T11:02:09.859Z,2.30
2018-01-17T11:04:37.302Z,2.40
2018-01-17T11:07:04.740Z,2.40
2018-01-17T11:09:37.301Z,2.50
2018-01-17T11:12:04.744Z,2.50
2018-01-17T11:14:32.196Z,2.50
2018-01-17T11:16:59.668Z,2.50
2018-01-17T11:19:27.118Z,2.50
2018-01-17T11:21:54.619Z,2.60
2018-01-17T11:24:22.656Z,2.60
2018-01-17T11:26:50.127Z,2.50
2018-01-17T11:29:17.762Z,2.50
2018-01-17T11:31:45.192Z,2.50
2018-01-17T11:34:12.652Z,2.50
2018-01-17T11:36:40.150Z,2.50
2018-01-17T11:39:07.584Z,2.60
2018-01-17T11:41:35.032Z,2.70
2018-01-17T11:44:02.507Z,2.70
2018-01-17T11:46:30.065Z,2.70
2018-01-17T11:48:57.609Z,2.70
2018-01-17T11:51:25.680Z,2.80
2018-01-17T11:53:53.132Z,2.90
2018-01-17T11:56:20.593Z,2.90
2018-01-17T11:58:48.028Z,2.80
2018-01-17T12:01:15.546Z,2.90
2018-01-17T12:03:43.029Z,3.10
2018-01-17T12:06:10.541Z,3.20
2018-01-17T12:08:38.097Z,3.20
2018-01-17T12:11:05.546Z,3.40
2018-01-17T12:13:33.805Z,3.40
2018-01-17T12:16:01.250Z,3.40
2018-01-17T12:18:28.865Z,3.40
2018-01-17T12:20:56.348Z,3.30
2018-01-17T12:23:23.796Z,3.20
2018-01-17T12:25:54.288Z,3.20
2018-01-17T12:28:21.724Z,3.00
2018-01-17T12:30:49.223Z,2.90
2018-01-17T12:33:16.686Z,3.00
2018-01-17T12:35:44.116Z,3.00
2018-01-17T12:38:12.192Z,3.10
2018-01-17T12:40:40.468Z,3.20
2018-01-17T12:43:07.917Z,3.20
2018-01-17T12:45:35.384Z,3.30
2018-01-17T12:48:02.842Z,3.00
2018-01-17T12:50:30.396Z,3.00
2018-01-17T12:52:57.843Z,3.10
2018-01-17T12:55:25.293Z,3.20
2018-01-17T12:57:52.762Z,3.10
2018-01-17T13:00:21.285Z,3.00
2018-01-17T13:02:48.734Z,2.90
2018-01-17T13:05:16.547Z,2.80
2018-01-17T13:07:44.121Z,2.70
2018-01-17T13:10:11.569Z,2.70
2018-01-17T13:12:39.087Z,2.70
2018-01-17T13:15:06.570Z,2.70
2018-01-17T13:17:34.881Z,2.60
2018-01-17T13:20:02.453Z,2.60
2018-01-17T13:22:30.008Z,2.80
2018-01-17T13:24:57.563Z,2.90
2018-01-17T13:27:28.418Z,2.90
2018-01-17T13:29:57.352Z,2.70
2018-01-17T13:32:24.839Z,2.70
2018-01-17T13:34:52.280Z,2.70
2018-01-17T13:37:19.760Z,2.60
2018-01-17T13:39:47.276Z,2.60
2018-01-17T13:42:14.733Z,2.60
2018-01-17T13:44:47.681Z,2.70
2018-01-17T13:47:15.120Z,2.80
2018-01-17T13:49:45.339Z,2.90
2018-01-17T13:52:12.859Z,2.90
2018-01-17T13:54:40.289Z,3.00
2018-01-17T13:57:08.455Z,3.00
2018-01-17T13:59:43.772Z,3.20
2018-01-17T14:02:11.213Z,3.20
2018-01-17T14:04:39.132Z,3.20
2018-01-17T14:07:07.327Z,3.30
2018-01-17T14:09:34.831Z,3.30
2018-01-17T14:12:02.296Z,3.20
2018-01-17T14:14:33.517Z,3.10
2018-01-17T14:17:00.985Z,3.10
2018-01-17T14:19:28.480Z,3.10
2018-01-17T14:21:55.932Z,3.10
2018-01-17T14:24:24.187Z,3.00
2018-01-17T14:26:51.984Z,2.90
2018-01-17T14:29:19.429Z,2.90
2018-01-17T14:31:47.021Z,2.80
2018-01-17T14:34:14.446Z,2.80
2018-01-17T14:36:42.584Z,2.80
2018-01-17T14:39:09.988Z,2.80
2018-01-17T14:41:37.518Z,2.70
2018-01-17T14:46:38.836Z,2.70
2018-01-17T14:49:07.216Z,2.50
2018-01-17T14:51:34.669Z,2.40
2018-01-17T14:54:02.122Z,2.20
2018-01-17T14:56:29.636Z,1.80
2018-01-17T14:58:57.081Z,1.50
2018-01-17T15:01:25.334Z,1.20
2018-01-17T15:03:52.838Z,1.20
2018-01-17T15:06:20.348Z,1.10
2018-01-17T15:08:47.837Z,1.10
2018-01-17T15:11:16.474Z,1.10
2018-01-17T15:13:43.922Z,1.10
2018-01-17T15:16:11.423Z,1.20
2018-01-17T15:18:38.912Z,1.20
2018-01-17T15:21:06.360Z,1.20
2018-01-17T15:23:33.802Z,1.20
2018-01-17T15:26:01.273Z,1.20
2018-01-17T15:28:30.473Z,1.30
2018-01-17T15:30:58.792Z,1.30
2018-01-17T15:33:26.285Z,1.30
2018-01-17T15:35:53.739Z,1.40
2018-01-17T15:38:21.218Z,1.40
2018-01-17T15:40:49.184Z,1.40
2018-01-17T15:43:16.828Z,1.30
2018-01-17T15:45:44.547Z,1.30
2018-01-17T15:48:12.029Z,1.40
2018-01-17T15:50:39.509Z,1.30
2018-01-17T15:53:06.965Z,1.10
2018-01-17T15:55:35.448Z,1.10
2018-01-17T15:58:02.917Z,1.20
2018-01-17T16:00:38.248Z,1.20
2018-01-17T16:03:05.701Z,1.20
2018-01-17T16:05:33.256Z,1.20
2018-01-17T16:08:00.791Z,1.20
2018-01-17T16:10:28.337Z,1.20
2018-01-17T16:12:55.969Z,1.20
2018-01-17T16:15:23.461Z,1.20
2018-01-17T16:17:50.912Z,1.30
2018-01-17T16:20:18.565Z,1.30
2018-01-17T16:22:46.068Z,1.30
2018-01-17T16:25:13.737Z,1.40
2018-01-17T16:27:42.502Z,1.30
2018-01-17T16:30:10.149Z,1.30
2018-01-17T16:32:37.731Z,1.30
2018-01-17T16:35:05.174Z,1.30
2018-01-17T16:37:32.628Z,1.20
2018-01-17T16:40:00.760Z,1.20
2018-01-17T16:42:28.405Z,1.10
2018-01-17T16:44:55.859Z,1.00
2018-01-17T16:47:24.109Z,1.00
2018-01-17T16:49:51.644Z,1.00
2018-01-17T16:52:20.788Z,1.00
2018-01-17T16:57:24.610Z,1.10
2018-01-17T16:59:52.092Z,1.20
2018-01-17T17:02:19.628Z,1.20
2018-01-17T17:04:47.138Z,1.20
2018-01-17T17:07:16.808Z,1.20
2018-01-17T17:09:44.295Z,1.20
2018-01-17T17:12:11.821Z,1.20
2018-01-17T17:14:40.206Z,1.30
2018-01-17T17:17:07.639Z,1.40
2018-01-17T17:19:35.117Z,1.40
2018-01-17T17:22:02.580Z,1.40
2018-01-17T17:24:30.825Z,1.30
2018-01-17T17:26:59.311Z,1.40
2018-01-17T17:29:26.749Z,1.40
2018-01-17T17:31:54.340Z,1.40
2018-01-17T17:34:22.578Z,1.40
2018-01-17T17:36:50.242Z,1.40
2018-01-17T17:39:18.050Z,1.40
2018-01-17T17:41:47.424Z,1.40
2018-01-17T17:44:15.011Z,1.40
2018-01-17T17:46:44.191Z,1.40
2018-01-17T17:49:11.661Z,1.40
2018-01-17T17:51:39.403Z,1.40
2018-01-17T17:54:07.002Z,1.50
2018-01-17T17:56:35.198Z,1.60
2018-01-17T17:59:03.691Z,1.60
2018-01-17T18:01:34.156Z,1.60
2018-01-17T18:04:02.123Z,1.60
2018-01-17T18:06:30.592Z,1.50
2018-01-17T18:08:58.060Z,1.50
2018-01-17T18:11:25.573Z,1.50
2018-01-17T18:13:53.027Z,1.50
2018-01-17T18:16:20.520Z,1.50
2018-01-17T18:18:48.201Z,1.50
2018-01-17T18:21:15.660Z,1.60
2018-01-17T18:23:43.885Z,1.60
2018-01-17T18:26:11.953Z,1.60
2018-01-17T18:28:39.424Z,1.60
2018-01-17T18:31:06.909Z,1.60
2018-01-17T18:33:34.355Z,1.70
2018-01-17T18:36:01.964Z,1.80
2018-01-17T18:38:29.419Z,1.80
2018-01-17T18:40:56.865Z,1.80
2018-01-17T18:43:26.097Z,1.90
2018-01-17T18:45:53.561Z,1.90
2018-01-17T18:48:21.036Z,1.90
2018-01-17T18:50:48.493Z,1.90
2018-01-17T18:53:16.000Z,2.00
2018-01-17T18:55:44.261Z,2.10
2018-01-17T18:58:12.474Z,2.00
2018-01-17T19:00:39.968Z,2.00
2018-01-17T19:03:07.645Z,2.00
2018-01-17T19:05:44.352Z,2.00
2018-01-17T19:08:11.837Z,2.00
2018-01-17T19:10:40.413Z,2.00
2018-01-17T19:13:07.881Z,2.00
2018-01-17T19:15:35.358Z,2.10
2018-01-17T19:18:07.423Z,2.10
2018-01-17T19:20:34.896Z,2.00
2018-01-17T19:23:02.341Z,2.00
2018-01-17T19:25:29.823Z,1.90
2018-01-17T19:27:57.266Z,1.90
2018-01-17T19:30:24.758Z,1.90
2018-01-17T19:32:59.877Z,2.00
2018-01-17T19:35:27.351Z,2.00
2018-01-17T19:37:54.825Z,2.00
2018-01-17T19:40:22.264Z,2.10
2018-01-17T19:42:49.748Z,2.00
2018-01-17T19:45:17.236Z,2.10
2018-01-17T19:47:44.684Z,2.10
2018-01-17T19:50:12.163Z,2.00
2018-01-17T19:52:39.622Z,2.00
2018-01-17T19:55:07.104Z,2.00
2018-01-17T19:57:35.466Z,2.10
2018-01-17T20:00:03.079Z,2.10
2018-01-17T20:02:30.602Z,2.00
2018-01-17T20:04:58.200Z,2.00
2018-01-17T20:07:25.824Z,2.00
2018-01-17T20:09:53.456Z,2.10
2018-01-17T20:12:20.922Z,2.10
2018-01-17T20:14:50.609Z,2.10
2018-01-17T20:17:18.117Z,2.10
2018-01-17T20:19:45.651Z,2.10
2018-01-17T20:22:13.167Z,2.10
2018-01-17T20:24:41.376Z,2.20
2018-01-17T20:27:08.873Z,2.20
2018-01-17T20:29:36.311Z,2.20
2018-01-17T20:32:03.816Z,2.20
2018-01-17T20:34:34.922Z,2.30
2018-01-17T20:37:02.608Z,2.30
2018-01-17T20:39:36.254Z,2.30
2018-01-17T20:42:03.710Z,2.20
2018-01-17T20:44:32.103Z,2.20
2018-01-17T20:46:59.702Z,2.20
2018-01-17T20:49:34.944Z,2.20
2018-01-17T20:52:02.518Z,2.20
2018-01-17T20:54:29.976Z,2.10
2018-01-17T20:56:57.692Z,2.20
2018-01-17T20:59:25.281Z,2.20
2018-01-17T21:01:52.924Z,2.20
2018-01-17T21:04:21.024Z,2.10
2018-01-17T21:06:50.011Z,2.10
2018-01-17T21:09:17.494Z,2.20
2018-01-17T21:11:45.049Z,2.10
2018-01-17T21:14:12.620Z,2.10
2018-01-17T21:16:41.363Z,2.10
2018-01-17T21:19:09.051Z,2.00
2018-01-17T21:21:36.621Z,2.10
2018-01-17T21:24:05.007Z,2.10
2018-01-17T21:26:32.586Z,2.10
2018-01-17T21:29:00.999Z,2.10
2018-01-17T21:31:28.541Z,2.10
2018-01-17T21:33:56.047Z,2.10
2018-01-17T21:36:24.977Z,2.10
2018-01-17T21:38:54.918Z,2.20
2018-01-17T21:41:22.340Z,2.20
2018-01-17T21:43:55.493Z,2.20
2018-01-17T21:46:22.945Z,2.20
2018-01-17T21:48:50.460Z,2.30
2018-01-17T21:51:23.134Z,2.20
2018-01-17T21:53:50.576Z,2.20
2018-01-17T21:56:18.189Z,2.30
2018-01-17T21:58:46.740Z,2.30
2018-01-17T22:01:14.873Z,2.30
2018-01-17T22:03:42.307Z,2.30
2018-01-17T22:06:13.999Z,2.30
2018-01-17T22:08:41.528Z,2.30
2018-01-17T22:11:09.367Z,2.30
2018-01-17T22:13:36.907Z,2.30
2018-01-17T22:16:05.158Z,2.50
2018-01-17T22:18:32.946Z,2.50
2018-01-17T22:21:04.130Z,2.50
2018-01-17T22:23:31.648Z,2.40
2018-01-17T22:25:59.089Z,2.30
2018-01-17T22:28:26.675Z,2.30
2018-01-17T22:30:54.129Z,2.20
2018-01-17T22:33:21.574Z,2.00
2018-01-17T22:35:52.818Z,1.90
2018-01-17T22:38:20.268Z,1.90
2018-01-17T22:40:49.420Z,1.80
2018-01-17T22:43:16.968Z,1.70
2018-01-17T22:45:44.440Z,1.70
2018-01-17T22:48:11.885Z,1.70
2018-01-17T22:50:39.368Z,1.60
2018-01-17T22:53:08.368Z,1.40
2018-01-17T22:55:35.828Z,1.40
2018-01-17T22:58:03.279Z,1.30
2018-01-17T23:00:30.745Z,1.30
2018-01-17T23:02:59.724Z,1.40
2018-01-17T23:05:27.191Z,1.30
2018-01-17T23:07:54.681Z,1.30
2018-01-17T23:10:22.197Z,1.30
2018-01-17T23:12:49.657Z,1.20
2018-01-17T23:15:20.200Z,1.10
2018-01-17T23:17:47.791Z,1.10
2018-01-17T23:20:16.764Z,1.00
2018-01-17T23:22:44.241Z,1.00
2018-01-17T23:25:12.485Z,1.10
2018-01-17T23:27:41.668Z,1.20
2018-01-17T23:30:09.115Z,1.20
2018-01-17T23:32:36.584Z,1.30
2018-01-17T23:35:04.049Z,1.50
2018-01-17T23:37:31.496Z,1.60
2018-01-17T23:39:58.964Z,1.70
2018-01-17T23:42:26.433Z,1.70
2018-01-17T23:44:54.560Z,1.80
2018-01-17T23:47:22.032Z,1.80
2018-01-17T23:49:49.705Z,1.70
2018-01-17T23:52:21.000Z,1.70
2018-01-17T23:54:53.149Z,1.80
2018-01-17T23:57:20.635Z,1.80
2018-01-17T23:59:48.853Z,1.90
